createdAt,value
2023-02-06T00:02:43.102Z,12.68
2023-02-06T00:05:56.580Z,14.20
2023-02-06T00:09:05.169Z,9.85
2023-02-06T00:12:10.420Z,13.77
2023-02-06T00:15:16.079Z,12.45
2023-02-06T00:18:21.358Z,12.85
2023-02-06T00:21:27.091Z,10.75
2023-02-06T00:24:35.161Z,14.32
2023-02-06T00:27:40.257Z,10.50
2023-02-06T00:30:48.693Z,11.88
2023-02-06T00:36:59.094Z,11.23
2023-02-06T00:40:08.431Z,12.45
2023-02-06T00:43:13.881Z,12.32
2023-02-06T00:46:19.627Z,12.80
2023-02-06T00:49:25.520Z,12.77
2023-02-06T00:52:31.187Z,11.13
2023-02-06T00:55:39.272Z,12.75
2023-02-06T00:58:44.353Z,11.80
2023-02-06T01:01:49.873Z,11.15
2023-02-06T01:04:55.309Z,11.77
2023-02-06T01:08:02.786Z,11.30
2023-02-06T01:11:15.792Z,11.43
2023-02-06T01:14:21.234Z,13.82
2023-02-06T01:17:27.230Z,11.25
2023-02-06T01:20:32.823Z,11.70
2023-02-06T01:23:38.241Z,10.35
2023-02-06T01:26:46.449Z,8.65
2023-02-06T01:29:51.777Z,10.93
2023-02-06T01:32:57.599Z,11.48
2023-02-06T01:36:03.054Z,11.43
2023-02-06T01:39:08.839Z,9.25
2023-02-06T01:42:16.657Z,11.43
2023-02-06T01:45:36.904Z,9.18
2023-02-06T01:48:44.633Z,10.38
2023-02-06T01:51:50.940Z,10.23
2023-02-06T01:54:58.649Z,11.68
2023-02-06T01:58:07.811Z,9.30
2023-02-06T02:01:14.346Z,11.68
2023-02-06T02:04:21.488Z,10.07
2023-02-06T02:07:28.600Z,12.20
2023-02-06T02:10:35.092Z,9.82
2023-02-06T02:13:43.126Z,8.32
2023-02-06T02:16:56.540Z,8.88
2023-02-06T02:20:16.708Z,9.15
2023-02-06T02:23:29.050Z,9.55
2023-02-06T02:26:49.931Z,9.60
2023-02-06T02:30:12.994Z,9.05
2023-02-06T02:33:42.359Z,8.32
2023-02-06T02:36:52.860Z,8.73
2023-02-06T02:40:07.026Z,8.75
2023-02-06T02:43:17.556Z,10.15
2023-02-06T02:46:25.983Z,8.15
2023-02-06T02:49:32.520Z,8.55
2023-02-06T02:52:40.629Z,7.80
2023-02-06T02:58:54.298Z,9.20
2023-02-06T03:02:01.711Z,11.90
2023-02-06T03:05:09.790Z,10.68
2023-02-06T03:08:24.549Z,8.75
2023-02-06T03:11:30.801Z,7.50
2023-02-06T03:14:37.954Z,9.38
2023-02-06T03:17:46.924Z,9.82
2023-02-06T03:20:53.242Z,9.90
2023-02-06T03:24:05.122Z,7.35
2023-02-06T03:27:13.125Z,12.48
2023-02-06T03:30:19.772Z,10.32
2023-02-06T03:33:28.704Z,10.70
2023-02-06T03:36:34.019Z,11.75
2023-02-06T03:39:42.716Z,10.93
2023-02-06T03:42:53.769Z,11.73
2023-02-06T03:46:01.341Z,9.02
2023-02-06T03:49:09.507Z,9.25
2023-02-06T03:52:16.833Z,9.07
2023-02-06T03:55:26.499Z,9.05
2023-02-06T03:58:32.661Z,10.82
2023-02-06T04:01:38.310Z,8.98
2023-02-06T04:04:45.218Z,8.35
2023-02-06T04:07:50.446Z,11.52
2023-02-06T04:10:58.456Z,9.65
2023-02-06T04:14:04.238Z,9.13
2023-02-06T04:17:09.634Z,7.40
2023-02-06T04:20:15.756Z,7.80
2023-02-06T04:23:22.013Z,6.57
2023-02-06T04:26:30.068Z,8.82
2023-02-06T04:29:35.661Z,6.85
2023-02-06T04:32:41.120Z,7.18
2023-02-06T04:35:46.326Z,8.32
2023-02-06T04:38:51.839Z,6.80
2023-02-06T04:42:00.123Z,6.57
2023-02-06T04:45:05.877Z,7.47
2023-02-06T04:48:11.096Z,7.25
2023-02-06T04:51:16.532Z,7.82
2023-02-06T04:54:22.093Z,7.07
2023-02-06T04:57:30.336Z,5.90
2023-02-06T05:03:42.368Z,8.30
2023-02-06T05:06:48.005Z,6.57
2023-02-06T05:09:53.457Z,7.00
2023-02-06T05:13:01.692Z,5.97
2023-02-06T05:16:10.863Z,6.82
2023-02-06T05:19:16.406Z,5.82
2023-02-06T05:22:21.560Z,6.60
2023-02-06T05:25:27.250Z,5.45
2023-02-06T05:28:36.576Z,6.55
2023-02-06T05:31:42.296Z,6.97
2023-02-06T05:34:47.551Z,6.47
2023-02-06T05:37:52.930Z,9.15
2023-02-06T05:40:58.078Z,6.43
2023-02-06T05:44:06.416Z,7.35
2023-02-06T05:47:11.647Z,9.23
2023-02-06T05:50:17.510Z,7.60
2023-02-06T05:53:22.536Z,7.28
2023-02-06T05:56:28.408Z,7.57
2023-02-06T05:59:36.328Z,8.13
2023-02-06T06:02:42.081Z,12.95
2023-02-06T06:05:47.965Z,7.53
2023-02-06T06:08:53.799Z,7.38
2023-02-06T06:11:58.903Z,9.15
2023-02-06T06:15:06.907Z,10.55
2023-02-06T06:18:12.486Z,12.68
2023-02-06T06:21:17.581Z,9.10
2023-02-06T06:24:23.505Z,10.07
2023-02-06T06:27:29.492Z,9.55
2023-02-06T06:30:37.811Z,7.68
2023-02-06T06:33:43.226Z,8.90
2023-02-06T06:36:48.773Z,9.05
2023-02-06T06:39:54.602Z,8.13
2023-02-06T06:43:00.002Z,6.80
2023-02-06T06:46:08.307Z,7.90
2023-02-06T06:49:13.861Z,8.45
2023-02-06T06:52:24.965Z,11.05
2023-02-06T06:55:31.086Z,10.75
2023-02-06T06:58:37.187Z,9.32
2023-02-06T07:01:45.031Z,8.88
2023-02-06T07:04:50.283Z,10.00
2023-02-06T07:07:55.696Z,9.82
2023-02-06T07:11:01.670Z,9.20
2023-02-06T07:14:06.822Z,9.65
2023-02-06T07:17:14.645Z,11.20
2023-02-06T07:20:20.539Z,8.68
2023-02-06T07:23:25.628Z,9.90
2023-02-06T07:26:30.657Z,10.98
2023-02-06T07:29:36.469Z,7.53
2023-02-06T07:32:44.273Z,9.25
2023-02-06T07:35:50.383Z,8.18
2023-02-06T07:38:56.012Z,9.90
2023-02-06T07:42:01.754Z,8.98
2023-02-06T07:45:20.773Z,7.90
2023-02-06T07:48:28.866Z,10.55
2023-02-06T07:54:39.668Z,11.00
2023-02-06T07:57:45.586Z,8.77
2023-02-06T08:00:51.043Z,10.15
2023-02-06T08:03:59.156Z,9.82
2023-02-06T08:10:09.865Z,8.30
2023-02-06T08:13:15.218Z,8.45
2023-02-06T08:16:21.785Z,9.32
2023-02-06T08:19:29.922Z,10.88
2023-02-06T08:22:35.487Z,8.00
2023-02-06T08:25:41.107Z,6.05
2023-02-06T08:28:47.418Z,7.25
2023-02-06T08:31:53.342Z,9.68
2023-02-06T08:35:01.561Z,7.88
2023-02-06T08:38:07.282Z,11.13
2023-02-06T08:41:18.453Z,8.27
2023-02-06T08:44:23.876Z,7.68
2023-02-06T08:47:29.289Z,9.40
2023-02-06T08:50:37.411Z,9.40
2023-02-06T08:56:47.902Z,9.07
2023-02-06T08:59:54.200Z,8.73
2023-02-06T09:02:59.713Z,10.45
2023-02-06T09:06:10.267Z,10.10
2023-02-06T09:09:16.313Z,10.95
2023-02-06T09:12:21.958Z,9.02
2023-02-06T09:15:27.247Z,11.02
2023-02-06T09:18:33.031Z,8.25
2023-02-06T09:21:41.047Z,12.13
2023-02-06T09:24:46.739Z,10.48
2023-02-06T09:27:51.982Z,8.27
2023-02-06T09:30:57.799Z,7.68
2023-02-06T09:34:03.274Z,9.30
2023-02-06T09:37:11.438Z,12.23
2023-02-06T09:43:22.060Z,9.02
2023-02-06T09:46:29.053Z,8.38
2023-02-06T09:49:39.543Z,11.00
2023-02-06T09:52:55.045Z,9.35
2023-02-06T09:56:03.886Z,9.88
2023-02-06T09:59:13.012Z,7.88
2023-02-06T10:02:26.040Z,11.30
2023-02-06T10:26:12.804Z,9.02
2023-02-06T10:29:22.745Z,12.05
2023-02-06T10:32:33.091Z,9.80
2023-02-06T10:35:44.759Z,9.52
2023-02-06T10:38:59.294Z,8.50
2023-02-06T10:42:10.855Z,9.70
2023-02-06T10:45:21.029Z,7.78
2023-02-06T10:48:31.873Z,8.95
2023-02-06T10:51:39.232Z,9.13
2023-02-06T10:54:47.909Z,9.35
2023-02-06T10:58:01.201Z,9.82
2023-02-06T11:01:23.683Z,12.15
2023-02-06T11:04:33.216Z,10.27
2023-02-06T11:07:41.687Z,7.22
2023-02-06T11:13:56.768Z,11.18
2023-02-06T11:17:03.083Z,7.72
2023-02-06T11:20:20.428Z,9.85
2023-02-06T11:23:26.917Z,7.67
2023-02-06T11:26:32.539Z,10.68
2023-02-06T11:29:46.440Z,8.10
2023-02-06T11:33:03.817Z,13.30
2023-02-06T11:39:24.630Z,9.95
2023-02-06T11:42:30.262Z,9.88
2023-02-06T11:45:38.903Z,11.98
2023-02-06T11:48:45.562Z,11.23
2023-02-06T11:51:52.620Z,7.82
2023-02-06T11:55:02.578Z,11.27
2023-02-06T11:58:10.696Z,10.40
2023-02-06T12:01:23.976Z,11.93
2023-02-06T12:04:31.130Z,9.23
2023-02-06T12:07:39.356Z,10.40
2023-02-06T12:10:52.616Z,10.02
2023-02-06T12:13:59.526Z,9.40
2023-02-06T12:17:08.242Z,10.68
2023-02-06T12:20:16.473Z,13.00
2023-02-06T12:23:25.547Z,11.00
2023-02-06T12:26:32.464Z,9.27
2023-02-06T12:29:39.327Z,12.43
2023-02-06T12:32:50.593Z,8.75
2023-02-06T12:35:59.831Z,8.57
2023-02-06T12:39:06.118Z,9.15
2023-02-06T12:42:24.463Z,10.77
2023-02-06T12:45:36.250Z,9.23
2023-02-06T12:48:47.255Z,9.75
2023-02-06T12:51:56.955Z,9.60
2023-02-06T12:55:06.733Z,10.43
2023-02-06T12:58:25.288Z,10.60
2023-02-06T13:01:40.422Z,8.75
2023-02-06T13:04:49.900Z,10.20
2023-02-06T13:07:55.833Z,8.80
2023-02-06T13:11:06.763Z,10.98
2023-02-06T13:14:20.150Z,8.75
2023-02-06T13:17:26.679Z,9.60
2023-02-06T13:20:34.591Z,9.50
2023-02-06T13:23:51.821Z,9.45
2023-02-06T13:27:12.129Z,8.17
2023-02-06T13:30:41.399Z,10.50
2023-02-06T13:33:51.616Z,8.05
2023-02-06T13:36:59.510Z,9.15
2023-02-06T13:40:21.168Z,9.40
2023-02-06T13:43:31.774Z,7.95
2023-02-06T13:46:48.360Z,7.22
2023-02-06T13:50:14.841Z,10.55
2023-02-06T13:53:35.140Z,6.78
2023-02-06T13:56:47.511Z,10.35
2023-02-06T13:59:54.273Z,6.88
2023-02-06T14:03:07.379Z,7.97
2023-02-06T14:06:20.901Z,9.27
2023-02-06T14:09:32.889Z,9.45
2023-02-06T14:12:47.365Z,10.00
2023-02-06T14:15:56.517Z,10.00
2023-02-06T14:19:04.634Z,10.15
2023-02-06T14:25:20.319Z,7.95
2023-02-06T14:28:34.096Z,9.43
2023-02-06T14:31:46.505Z,8.15
2023-02-06T14:34:58.608Z,10.07
2023-02-06T14:38:23.493Z,11.23
2023-02-06T14:41:31.344Z,8.60
2023-02-06T14:44:39.839Z,11.82
2023-02-06T14:47:45.728Z,9.88
2023-02-06T14:50:54.459Z,9.82
2023-02-06T14:54:02.449Z,9.45
2023-02-06T14:57:10.119Z,11.15
2023-02-06T15:00:20.914Z,13.10
2023-02-06T15:03:27.159Z,7.47
2023-02-06T15:06:35.696Z,7.28
2023-02-06T15:09:44.384Z,10.88
2023-02-06T15:12:54.559Z,11.00
2023-02-06T15:16:04.887Z,10.13
2023-02-06T15:19:14.223Z,9.93
2023-02-06T15:22:21.747Z,10.55
2023-02-06T15:25:33.576Z,10.02
2023-02-06T15:28:39.887Z,9.07
2023-02-06T15:31:49.817Z,16.98
2023-02-06T15:34:55.217Z,12.30
2023-02-06T15:38:06.082Z,11.05
2023-02-06T15:41:11.826Z,10.60
2023-02-06T15:44:22.945Z,13.07
2023-02-06T15:47:30.795Z,10.00
2023-02-06T15:50:36.625Z,9.68
2023-02-06T15:53:42.905Z,10.77
2023-02-06T15:56:51.470Z,9.73
2023-02-06T15:59:57.379Z,10.95
2023-02-06T16:03:07.955Z,9.73
2023-02-06T16:06:17.712Z,13.43
2023-02-06T16:09:23.793Z,11.80
2023-02-06T16:12:29.031Z,13.65
2023-02-06T16:15:35.660Z,13.30
2023-02-06T16:18:46.992Z,13.95
2023-02-06T16:22:06.420Z,14.95
2023-02-06T16:25:22.933Z,14.55
2023-02-06T16:28:29.464Z,13.82
2023-02-06T16:31:37.310Z,14.45
2023-02-06T16:34:46.143Z,15.27
2023-02-06T16:37:51.804Z,14.40
2023-02-06T16:40:57.324Z,19.85
2023-02-06T16:44:03.304Z,14.20
2023-02-06T16:47:09.485Z,14.23
2023-02-06T16:50:17.836Z,14.52
2023-02-06T16:56:28.617Z,18.70
2023-02-06T16:59:33.970Z,15.63
2023-02-06T17:02:39.332Z,17.48
2023-02-06T17:05:47.592Z,17.63
2023-02-06T17:08:53.800Z,15.85
2023-02-06T17:11:58.989Z,19.13
2023-02-06T17:15:22.940Z,20.67
2023-02-06T17:18:28.429Z,15.65
2023-02-06T17:21:36.524Z,19.50
2023-02-06T17:27:47.402Z,14.77
2023-02-06T17:30:52.698Z,16.77
2023-02-06T17:33:58.489Z,18.88
2023-02-06T17:37:08.277Z,17.42
2023-02-06T17:40:15.768Z,19.13
2023-02-06T17:43:21.098Z,17.83
2023-02-06T17:46:26.935Z,17.38
2023-02-06T17:49:32.809Z,19.40
2023-02-06T17:52:41.376Z,17.52
2023-02-06T17:58:51.406Z,15.05
2023-02-06T18:01:57.021Z,17.13
2023-02-06T18:05:03.872Z,14.50
2023-02-06T18:08:12.297Z,14.73
2023-02-06T18:11:18.384Z,17.27
2023-02-06T18:14:24.071Z,13.80
2023-02-06T18:17:29.178Z,15.68
2023-02-06T18:20:35.020Z,13.90
2023-02-06T18:23:42.881Z,12.88
2023-02-06T18:26:48.451Z,14.40
2023-02-06T18:29:55.404Z,14.43
2023-02-06T18:33:01.210Z,14.77
2023-02-06T18:36:07.628Z,13.93
2023-02-06T18:39:16.151Z,13.52
2023-02-06T18:42:33.876Z,14.13
2023-02-06T18:45:40.309Z,13.10
2023-02-06T18:48:45.681Z,12.35
2023-02-06T18:51:51.425Z,15.95
2023-02-06T18:54:59.496Z,17.50
2023-02-06T19:01:14.436Z,14.75
2023-02-06T19:04:20.312Z,15.65
2023-02-06T19:07:26.030Z,19.33
2023-02-06T19:10:34.083Z,15.27
2023-02-06T19:13:40.845Z,12.13
2023-02-06T19:16:48.317Z,13.73
2023-02-06T19:19:54.034Z,15.38
2023-02-06T19:22:59.664Z,14.38
2023-02-06T19:26:08.432Z,11.93
2023-02-06T19:29:15.115Z,13.15
2023-02-06T19:32:20.722Z,12.38
2023-02-06T19:35:26.429Z,11.73
2023-02-06T19:38:31.857Z,14.15
2023-02-06T19:41:39.841Z,14.32
2023-02-06T19:44:46.038Z,12.90
2023-02-06T19:47:51.793Z,16.50
2023-02-06T19:50:56.845Z,12.75
2023-02-06T19:54:02.965Z,12.88
2023-02-06T19:57:11.215Z,13.05
2023-02-06T20:00:17.371Z,12.23
2023-02-06T20:03:23.328Z,11.15
2023-02-06T20:06:29.720Z,14.40
2023-02-06T20:09:35.508Z,12.75
2023-02-06T20:12:43.614Z,13.98
2023-02-06T20:15:48.821Z,14.00
2023-02-06T20:18:54.543Z,12.50
2023-02-06T20:22:01.563Z,13.85
2023-02-06T20:25:06.746Z,14.43
2023-02-06T20:28:14.735Z,12.00
2023-02-06T20:31:20.383Z,12.63
2023-02-06T20:34:27.098Z,12.65
2023-02-06T20:37:32.706Z,13.88
2023-02-06T20:40:40.890Z,14.23
2023-02-06T20:43:48.797Z,17.67
2023-02-06T20:46:54.610Z,12.98
2023-02-06T20:50:00.720Z,14.63
2023-02-06T20:53:06.317Z,15.40
2023-02-06T20:56:12.572Z,14.02
2023-02-06T20:59:21.376Z,11.55
2023-02-06T21:02:28.430Z,10.30
2023-02-06T21:05:34.046Z,12.60
2023-02-06T21:08:39.111Z,13.63
2023-02-06T21:11:45.414Z,11.45
2023-02-06T21:14:53.364Z,14.57
2023-02-06T21:17:59.000Z,16.40
2023-02-06T21:21:09.658Z,14.73
2023-02-06T21:24:15.068Z,14.70
2023-02-06T21:27:20.447Z,14.32
2023-02-06T21:30:28.339Z,11.45
2023-02-06T21:33:34.069Z,11.50
2023-02-06T21:36:41.047Z,12.13
2023-02-06T21:39:46.482Z,12.45
2023-02-06T21:42:52.288Z,12.85
2023-02-06T21:46:00.533Z,10.07
2023-02-06T21:49:06.832Z,12.07
2023-02-06T21:52:12.459Z,13.60
2023-02-06T21:55:17.982Z,11.18
2023-02-06T21:58:23.488Z,11.57
2023-02-06T22:01:33.439Z,11.63
2023-02-06T22:04:39.694Z,11.23
2023-02-06T22:07:45.296Z,11.68
2023-02-06T22:10:50.908Z,10.68
2023-02-06T22:13:56.642Z,11.93
2023-02-06T22:17:04.673Z,11.27
2023-02-06T22:20:10.415Z,10.93
2023-02-06T22:23:16.169Z,9.60
2023-02-06T22:26:23.334Z,9.35
2023-02-06T22:29:30.489Z,13.45
2023-02-06T22:32:39.307Z,11.63
2023-02-06T22:35:44.646Z,11.02
2023-02-06T22:38:50.272Z,10.98
2023-02-06T22:41:55.398Z,9.52
2023-02-06T22:45:00.555Z,12.18
2023-02-06T22:48:08.874Z,11.00
2023-02-06T22:51:14.336Z,11.35
2023-02-06T22:54:20.243Z,14.50
2023-02-06T22:57:25.794Z,11.32
2023-02-06T23:00:31.389Z,12.40
2023-02-06T23:03:39.424Z,14.60
2023-02-06T23:06:45.029Z,11.77
2023-02-06T23:09:50.292Z,10.90
2023-02-06T23:12:55.784Z,13.57
2023-02-06T23:16:01.959Z,13.35
2023-02-06T23:19:10.643Z,11.98
2023-02-06T23:22:16.090Z,14.23
2023-02-06T23:25:21.753Z,12.18
2023-02-06T23:28:28.809Z,12.20
2023-02-06T23:31:34.907Z,14.40
2023-02-06T23:34:42.889Z,12.13
2023-02-06T23:37:48.109Z,14.38
2023-02-06T23:40:53.506Z,15.68
2023-02-06T23:44:00.083Z,11.65
2023-02-06T23:47:05.276Z,12.02
2023-02-06T23:50:13.694Z,12.52
2023-02-06T23:53:18.858Z,9.95
2023-02-06T23:56:25.855Z,10.40
2023-02-06T23:59:31.062Z,10.88
